sensor_id;sensor_type;location;lat;lon;timestamp;temperature;humidity
2721;DHT22;1368;49.484;11.112;2022-12-10T00:00:23;1.30;99.90
2721;DHT22;1368;49.484;11.112;2022-12-10T00:02:49;1.30;99.90
2721;DHT22;1368;49.484;11.112;2022-12-10T00:05:15;1.30;99.90
2721;DHT22;1368;49.484;11.112;2022-12-10T00:07:41;1.30;99.90
2721;DHT22;1368;49.484;11.112;2022-12-10T00:10:06;1.20;99.90
2721;DHT22;1368;49.484;11.112;2022-12-10T00:12:32;1.10;99.90
2721;DHT22;1368;49.484;11.112;2022-12-10T00:14:57;0.90;99.90
2721;DHT22;1368;49.484;11.112;2022-12-10T00:17:23;0.60;99.90
2721;DHT22;1368;49.484;11.112;2022-12-10T00:19:48;0.50;99.90
2721;DHT22;1368;49.484;11.112;2022-12-10T00:22:14;0.60;99.90
2721;DHT22;1368;49.484;11.112;2022-12-10T00:24:39;0.70;99.90
2721;DHT22;1368;49.484;11.112;2022-12-10T00:27:05;0.70;99.90
2721;DHT22;1368;49.484;11.112;2022-12-10T00:29:30;0.60;99.90
2721;DHT22;1368;49.484;11.112;2022-12-10T00:31:56;0.50;99.90
2721;DHT22;1368;49.484;11.112;2022-12-10T00:34:22;0.30;99.90
2721;DHT22;1368;49.484;11.112;2022-12-10T00:36:48;0.20;99.90
2721;DHT22;1368;49.484;11.112;2022-12-10T00:39:19;0.20;99.90
2721;DHT22;1368;49.484;11.112;2022-12-10T00:41:45;0.20;99.90
2721;DHT22;1368;49.484;11.112;2022-12-10T00:44:11;0.30;99.90
2721;DHT22;1368;49.484;11.112;2022-12-10T00:46:36;0.30;99.90
2721;DHT22;1368;49.484;11.112;2022-12-10T00:49:02;0.30;99.90
2721;DHT22;1368;49.484;11.112;2022-12-10T00:51:29;0.30;99.90
2721;DHT22;1368;49.484;11.112;2022-12-10T00:53:55;0.30;99.90
2721;DHT22;1368;49.484;11.112;2022-12-10T00:56:24;0.20;99.90
2721;DHT22;1368;49.484;11.112;2022-12-10T00:58:51;0.00;99.90
2721;DHT22;1368;49.484;11.112;2022-12-10T01:01:31;-0.20;99.90
2721;DHT22;1368;49.484;11.112;2022-12-10T01:03:59;-0.20;99.90
2721;DHT22;1368;49.484;11.112;2022-12-10T01:06:34;-0.20;99.90
2721;DHT22;1368;49.484;11.112;2022-12-10T01:09:03;-0.30;99.90
2721;DHT22;1368;49.484;11.112;2022-12-10T01:11:32;-0.20;99.90
2721;DHT22;1368;49.484;11.112;2022-12-10T01:13:58;0.00;99.90
2721;DHT22;1368;49.484;11.112;2022-12-10T01:16:24;0.10;99.90
2721;DHT22;1368;49.484;11.112;2022-12-10T01:18:53;0.20;99.90
2721;DHT22;1368;49.484;11.112;2022-12-10T01:21:19;0.30;99.90
2721;DHT22;1368;49.484;11.112;2022-12-10T01:23:50;0.40;99.90
2721;DHT22;1368;49.484;11.112;2022-12-10T01:26:19;0.40;99.90
2721;DHT22;1368;49.484;11.112;2022-12-10T01:28:46;0.50;99.90
2721;DHT22;1368;49.484;11.112;2022-12-10T01:31:20;0.60;99.90
2721;DHT22;1368;49.484;11.112;2022-12-10T01:33:46;0.60;99.90
2721;DHT22;1368;49.484;11.112;2022-12-10T01:36:23;0.50;99.90
2721;DHT22;1368;49.484;11.112;2022-12-10T01:38:49;0.60;99.90
2721;DHT22;1368;49.484;11.112;2022-12-10T01:41:22;0.70;99.90
2721;DHT22;1368;49.484;11.112;2022-12-10T01:44:05;0.80;99.90
2721;DHT22;1368;49.484;11.112;2022-12-10T01:46:51;1.00;99.90
2721;DHT22;1368;49.484;11.112;2022-12-10T01:49:25;1.00;99.90
2721;DHT22;1368;49.484;11.112;2022-12-10T01:51:54;1.10;99.90
2721;DHT22;1368;49.484;11.112;2022-12-10T01:54:42;1.20;99.90
2721;DHT22;1368;49.484;11.112;2022-12-10T01:57:11;1.30;99.90
2721;DHT22;1368;49.484;11.112;2022-12-10T01:59:38;1.30;99.90
2721;DHT22;1368;49.484;11.112;2022-12-10T02:02:24;1.40;99.90
2721;DHT22;1368;49.484;11.112;2022-12-10T02:05:25;1.30;99.90
2721;DHT22;1368;49.484;11.112;2022-12-10T02:08:33;1.40;99.90
2721;DHT22;1368;49.484;11.112;2022-12-10T02:11:22;1.50;99.90
2721;DHT22;1368;49.484;11.112;2022-12-10T02:13:57;1.50;99.90
2721;DHT22;1368;49.484;11.112;2022-12-10T02:17:05;1.50;99.90
2721;DHT22;1368;49.484;11.112;2022-12-10T02:22:18;1.50;99.90
2721;DHT22;1368;49.484;11.112;2022-12-10T02:24:45;1.50;99.90
2721;DHT22;1368;49.484;11.112;2022-12-10T02:27:25;1.50;99.90
2721;DHT22;1368;49.484;11.112;2022-12-10T02:29:54;1.50;99.90
2721;DHT22;1368;49.484;11.112;2022-12-10T02:32:24;1.50;99.90
2721;DHT22;1368;49.484;11.112;2022-12-10T02:34:54;1.60;99.90
2721;DHT22;1368;49.484;11.112;2022-12-10T02:37:49;1.70;99.90
2721;DHT22;1368;49.484;11.112;2022-12-10T02:40:22;1.70;99.90
2721;DHT22;1368;49.484;11.112;2022-12-10T02:42:50;1.60;99.90
2721;DHT22;1368;49.484;11.112;2022-12-10T02:45:17;1.30;99.90
2721;DHT22;1368;49.484;11.112;2022-12-10T02:47:43;1.40;99.90
2721;DHT22;1368;49.484;11.112;2022-12-10T02:50:10;1.40;99.90
2721;DHT22;1368;49.484;11.112;2022-12-10T02:52:38;1.40;99.90
2721;DHT22;1368;49.484;11.112;2022-12-10T02:55:04;1.30;99.90
2721;DHT22;1368;49.484;11.112;2022-12-10T02:57:57;1.30;99.90
2721;DHT22;1368;49.484;11.112;2022-12-10T03:00:29;1.50;99.90
2721;DHT22;1368;49.484;11.112;2022-12-10T03:06:00;1.40;99.90
2721;DHT22;1368;49.484;11.112;2022-12-10T03:08:50;1.40;99.90
2721;DHT22;1368;49.484;11.112;2022-12-10T03:11:19;1.50;99.90
2721;DHT22;1368;49.484;11.112;2022-12-10T03:16:28;1.40;99.90
2721;DHT22;1368;49.484;11.112;2022-12-10T03:19:00;1.30;99.90
2721;DHT22;1368;49.484;11.112;2022-12-10T03:21:28;1.50;99.90
2721;DHT22;1368;49.484;11.112;2022-12-10T03:23:55;1.50;99.90
2721;DHT22;1368;49.484;11.112;2022-12-10T03:26:22;1.60;99.90
2721;DHT22;1368;49.484;11.112;2022-12-10T03:28:52;1.40;99.90
2721;DHT22;1368;49.484;11.112;2022-12-10T03:31:20;1.30;99.90
2721;DHT22;1368;49.484;11.112;2022-12-10T03:33:47;1.30;99.90
2721;DHT22;1368;49.484;11.112;2022-12-10T03:36:14;1.40;99.90
2721;DHT22;1368;49.484;11.112;2022-12-10T03:38:42;1.50;99.90
2721;DHT22;1368;49.484;11.112;2022-12-10T03:41:08;1.60;99.90
2721;DHT22;1368;49.484;11.112;2022-12-10T03:43:33;1.60;99.90
2721;DHT22;1368;49.484;11.112;2022-12-10T03:45:59;1.50;99.90
2721;DHT22;1368;49.484;11.112;2022-12-10T03:48:25;1.40;99.90
2721;DHT22;1368;49.484;11.112;2022-12-10T03:50:50;1.50;99.90
2721;DHT22;1368;49.484;11.112;2022-12-10T03:53:16;1.50;99.90
2721;DHT22;1368;49.484;11.112;2022-12-10T03:55:41;1.30;99.90
2721;DHT22;1368;49.484;11.112;2022-12-10T03:58:07;1.50;99.90
2721;DHT22;1368;49.484;11.112;2022-12-10T04:00:32;1.10;99.90
2721;DHT22;1368;49.484;11.112;2022-12-10T04:02:58;1.10;99.90
2721;DHT22;1368;49.484;11.112;2022-12-10T04:05:24;1.10;99.90
2721;DHT22;1368;49.484;11.112;2022-12-10T04:07:49;1.20;99.90
2721;DHT22;1368;49.484;11.112;2022-12-10T04:10:15;0.90;99.90
2721;DHT22;1368;49.484;11.112;2022-12-10T04:12:40;1.00;99.90
2721;DHT22;1368;49.484;11.112;2022-12-10T04:15:07;1.10;99.90
2721;DHT22;1368;49.484;11.112;2022-12-10T04:17:51;1.20;99.90
2721;DHT22;1368;49.484;11.112;2022-12-10T04:20:16;1.40;99.90
2721;DHT22;1368;49.484;11.112;2022-12-10T04:23:01;1.40;99.90
2721;DHT22;1368;49.484;11.112;2022-12-10T04:25:45;1.40;99.90
2721;DHT22;1368;49.484;11.112;2022-12-10T04:28:29;1.40;99.90
2721;DHT22;1368;49.484;11.112;2022-12-10T04:30:54;1.40;99.90
2721;DHT22;1368;49.484;11.112;2022-12-10T04:33:20;1.50;99.90
2721;DHT22;1368;49.484;11.112;2022-12-10T04:35:45;1.50;99.90
2721;DHT22;1368;49.484;11.112;2022-12-10T04:38:11;1.40;99.90
2721;DHT22;1368;49.484;11.112;2022-12-10T04:40:37;1.30;99.90
2721;DHT22;1368;49.484;11.112;2022-12-10T04:43:02;1.20;99.90
2721;DHT22;1368;49.484;11.112;2022-12-10T04:45:28;1.20;99.90
2721;DHT22;1368;49.484;11.112;2022-12-10T04:47:53;1.00;99.90
2721;DHT22;1368;49.484;11.112;2022-12-10T04:50:19;1.10;99.90
2721;DHT22;1368;49.484;11.112;2022-12-10T04:52:44;1.30;99.90
2721;DHT22;1368;49.484;11.112;2022-12-10T04:55:10;1.40;99.90
2721;DHT22;1368;49.484;11.112;2022-12-10T04:57:35;1.50;99.90
2721;DHT22;1368;49.484;11.112;2022-12-10T05:00:01;1.40;99.90
2721;DHT22;1368;49.484;11.112;2022-12-10T05:02:27;1.60;99.90
2721;DHT22;1368;49.484;11.112;2022-12-10T05:04:52;1.60;99.90
2721;DHT22;1368;49.484;11.112;2022-12-10T05:07:18;1.70;99.90
2721;DHT22;1368;49.484;11.112;2022-12-10T05:09:43;1.70;99.90
2721;DHT22;1368;49.484;11.112;2022-12-10T05:12:09;1.70;99.90
2721;DHT22;1368;49.484;11.112;2022-12-10T05:14:34;1.60;99.90
2721;DHT22;1368;49.484;11.112;2022-12-10T05:17:00;1.60;99.90
2721;DHT22;1368;49.484;11.112;2022-12-10T05:19:26;1.60;99.90
2721;DHT22;1368;49.484;11.112;2022-12-10T05:21:52;1.60;99.90
2721;DHT22;1368;49.484;11.112;2022-12-10T05:24:36;1.60;99.90
2721;DHT22;1368;49.484;11.112;2022-12-10T05:27:02;1.60;99.90
2721;DHT22;1368;49.484;11.112;2022-12-10T05:29:28;1.50;99.90
2721;DHT22;1368;49.484;11.112;2022-12-10T05:31:53;1.50;99.90
2721;DHT22;1368;49.484;11.112;2022-12-10T05:34:19;1.60;99.90
2721;DHT22;1368;49.484;11.112;2022-12-10T05:36:45;1.60;99.90
2721;DHT22;1368;49.484;11.112;2022-12-10T05:39:10;1.50;99.90
2721;DHT22;1368;49.484;11.112;2022-12-10T05:41:38;1.30;99.90
2721;DHT22;1368;49.484;11.112;2022-12-10T05:44:04;1.30;99.90
2721;DHT22;1368;49.484;11.112;2022-12-10T05:46:32;1.40;99.90
2721;DHT22;1368;49.484;11.112;2022-12-10T05:48:59;1.40;99.90
2721;DHT22;1368;49.484;11.112;2022-12-10T05:51:27;1.30;99.90
2721;DHT22;1368;49.484;11.112;2022-12-10T05:53:55;1.30;99.90
2721;DHT22;1368;49.484;11.112;2022-12-10T05:56:23;1.30;99.90
2721;DHT22;1368;49.484;11.112;2022-12-10T05:58:51;1.60;99.90
2721;DHT22;1368;49.484;11.112;2022-12-10T06:01:19;1.20;99.90
2721;DHT22;1368;49.484;11.112;2022-12-10T06:03:45;1.10;99.90
2721;DHT22;1368;49.484;11.112;2022-12-10T06:06:12;1.00;99.90
2721;DHT22;1368;49.484;11.112;2022-12-10T06:08:38;0.80;99.90
2721;DHT22;1368;49.484;11.112;2022-12-10T06:11:06;0.70;99.90
2721;DHT22;1368;49.484;11.112;2022-12-10T06:13:32;0.90;99.90
2721;DHT22;1368;49.484;11.112;2022-12-10T06:15:58;0.80;99.90
2721;DHT22;1368;49.484;11.112;2022-12-10T06:18:23;0.50;99.90
2721;DHT22;1368;49.484;11.112;2022-12-10T06:20:49;0.40;99.90
2721;DHT22;1368;49.484;11.112;2022-12-10T06:23:15;0.50;99.90
2721;DHT22;1368;49.484;11.112;2022-12-10T06:25:40;0.60;99.90
2721;DHT22;1368;49.484;11.112;2022-12-10T06:28:07;0.70;99.90
2721;DHT22;1368;49.484;11.112;2022-12-10T06:30:33;0.90;99.90
2721;DHT22;1368;49.484;11.112;2022-12-10T06:32:59;0.80;99.90
2721;DHT22;1368;49.484;11.112;2022-12-10T06:35:25;0.50;99.90
2721;DHT22;1368;49.484;11.112;2022-12-10T06:37:51;0.40;99.90
2721;DHT22;1368;49.484;11.112;2022-12-10T06:40:17;0.40;99.90
2721;DHT22;1368;49.484;11.112;2022-12-10T06:42:42;0.00;99.90
2721;DHT22;1368;49.484;11.112;2022-12-10T06:45:09;0.00;99.90
2721;DHT22;1368;49.484;11.112;2022-12-10T06:47:34;-0.30;99.90
2721;DHT22;1368;49.484;11.112;2022-12-10T06:50:00;-0.40;99.90
2721;DHT22;1368;49.484;11.112;2022-12-10T06:52:25;-0.20;99.90
2721;DHT22;1368;49.484;11.112;2022-12-10T06:54:51;0.00;99.90
2721;DHT22;1368;49.484;11.112;2022-12-10T06:57:16;0.00;99.90
2721;DHT22;1368;49.484;11.112;2022-12-10T06:59:42;-0.30;99.90
2721;DHT22;1368;49.484;11.112;2022-12-10T07:02:09;-0.20;99.90
2721;DHT22;1368;49.484;11.112;2022-12-10T07:04:35;-0.10;99.90
2721;DHT22;1368;49.484;11.112;2022-12-10T07:07:00;-0.20;99.90
2721;DHT22;1368;49.484;11.112;2022-12-10T07:09:26;0.00;99.90
2721;DHT22;1368;49.484;11.112;2022-12-10T07:11:51;0.20;99.90
2721;DHT22;1368;49.484;11.112;2022-12-10T07:14:17;0.30;99.90
2721;DHT22;1368;49.484;11.112;2022-12-10T07:16:43;0.20;99.90
2721;DHT22;1368;49.484;11.112;2022-12-10T07:19:11;0.10;99.90
2721;DHT22;1368;49.484;11.112;2022-12-10T07:21:39;0.30;99.90
2721;DHT22;1368;49.484;11.112;2022-12-10T07:24:08;0.20;99.90
2721;DHT22;1368;49.484;11.112;2022-12-10T07:26:37;0.10;99.90
2721;DHT22;1368;49.484;11.112;2022-12-10T07:29:04;0.00;99.90
2721;DHT22;1368;49.484;11.112;2022-12-10T07:31:30;0.00;99.90
2721;DHT22;1368;49.484;11.112;2022-12-10T07:33:57;0.20;99.90
2721;DHT22;1368;49.484;11.112;2022-12-10T07:36:23;0.40;99.90
2721;DHT22;1368;49.484;11.112;2022-12-10T07:38:50;0.50;99.90
2721;DHT22;1368;49.484;11.112;2022-12-10T07:41:16;0.70;99.90
2721;DHT22;1368;49.484;11.112;2022-12-10T07:43:44;0.50;99.90
2721;DHT22;1368;49.484;11.112;2022-12-10T07:48:40;0.40;99.90
2721;DHT22;1368;49.484;11.112;2022-12-10T07:51:07;0.40;99.90
2721;DHT22;1368;49.484;11.112;2022-12-10T07:53:34;0.40;99.90
2721;DHT22;1368;49.484;11.112;2022-12-10T07:56:00;0.40;99.90
2721;DHT22;1368;49.484;11.112;2022-12-10T07:58:26;0.30;99.90
2721;DHT22;1368;49.484;11.112;2022-12-10T08:00:52;0.40;99.90
2721;DHT22;1368;49.484;11.112;2022-12-10T08:03:18;0.50;99.90
2721;DHT22;1368;49.484;11.112;2022-12-10T08:05:43;0.60;99.90
2721;DHT22;1368;49.484;11.112;2022-12-10T08:08:09;0.70;99.90
2721;DHT22;1368;49.484;11.112;2022-12-10T08:10:38;0.80;99.90
2721;DHT22;1368;49.484;11.112;2022-12-10T08:13:05;0.70;99.90
2721;DHT22;1368;49.484;11.112;2022-12-10T08:15:31;0.70;99.90
2721;DHT22;1368;49.484;11.112;2022-12-10T08:17:57;0.70;99.90
2721;DHT22;1368;49.484;11.112;2022-12-10T08:20:23;0.60;99.90
2721;DHT22;1368;49.484;11.112;2022-12-10T08:22:49;0.70;99.90
2721;DHT22;1368;49.484;11.112;2022-12-10T08:25:15;0.80;99.90
2721;DHT22;1368;49.484;11.112;2022-12-10T08:27:41;1.00;99.90
2721;DHT22;1368;49.484;11.112;2022-12-10T08:30:07;0.90;99.90
2721;DHT22;1368;49.484;11.112;2022-12-10T08:32:32;1.00;99.90
2721;DHT22;1368;49.484;11.112;2022-12-10T08:34:58;1.00;99.90
2721;DHT22;1368;49.484;11.112;2022-12-10T08:37:23;1.00;99.90
2721;DHT22;1368;49.484;11.112;2022-12-10T08:39:49;1.10;99.90
2721;DHT22;1368;49.484;11.112;2022-12-10T08:42:15;1.10;99.90
2721;DHT22;1368;49.484;11.112;2022-12-10T08:44:40;1.10;99.90
2721;DHT22;1368;49.484;11.112;2022-12-10T08:47:06;1.00;99.90
2721;DHT22;1368;49.484;11.112;2022-12-10T08:49:31;1.10;99.90
2721;DHT22;1368;49.484;11.112;2022-12-10T08:51:58;1.30;99.90
2721;DHT22;1368;49.484;11.112;2022-12-10T08:54:24;1.40;99.90
2721;DHT22;1368;49.484;11.112;2022-12-10T08:56:50;1.20;99.90
2721;DHT22;1368;49.484;11.112;2022-12-10T08:59:16;1.30;99.90
2721;DHT22;1368;49.484;11.112;2022-12-10T09:01:42;1.40;99.90
2721;DHT22;1368;49.484;11.112;2022-12-10T09:04:07;1.40;99.90
2721;DHT22;1368;49.484;11.112;2022-12-10T09:06:33;1.40;99.90
2721;DHT22;1368;49.484;11.112;2022-12-10T09:08:59;1.50;99.90
2721;DHT22;1368;49.484;11.112;2022-12-10T09:11:30;1.60;99.90
2721;DHT22;1368;49.484;11.112;2022-12-10T09:13:56;1.60;99.90
2721;DHT22;1368;49.484;11.112;2022-12-10T09:16:28;1.60;99.90
2721;DHT22;1368;49.484;11.112;2022-12-10T09:18:54;1.90;99.90
2721;DHT22;1368;49.484;11.112;2022-12-10T09:21:19;1.90;99.90
2721;DHT22;1368;49.484;11.112;2022-12-10T09:23:46;2.20;99.90
2721;DHT22;1368;49.484;11.112;2022-12-10T09:26:13;1.90;99.90
2721;DHT22;1368;49.484;11.112;2022-12-10T09:28:40;2.10;99.90
2721;DHT22;1368;49.484;11.112;2022-12-10T09:31:07;2.40;99.90
2721;DHT22;1368;49.484;11.112;2022-12-10T09:33:34;2.60;99.90
2721;DHT22;1368;49.484;11.112;2022-12-10T09:35:59;2.80;99.90
2721;DHT22;1368;49.484;11.112;2022-12-10T09:38:27;2.80;99.90
2721;DHT22;1368;49.484;11.112;2022-12-10T09:44:08;3.00;99.90
2721;DHT22;1368;49.484;11.112;2022-12-10T09:51:54;3.30;99.90
2721;DHT22;1368;49.484;11.112;2022-12-10T09:54:32;3.10;99.90
2721;DHT22;1368;49.484;11.112;2022-12-10T09:56:58;3.00;99.90
2721;DHT22;1368;49.484;11.112;2022-12-10T09:59:36;3.10;99.90
2721;DHT22;1368;49.484;11.112;2022-12-10T10:02:25;3.30;99.90
2721;DHT22;1368;49.484;11.112;2022-12-10T10:07:31;3.00;99.90
2721;DHT22;1368;49.484;11.112;2022-12-10T10:10:02;3.00;99.90
2721;DHT22;1368;49.484;11.112;2022-12-10T10:12:31;3.10;99.90
2721;DHT22;1368;49.484;11.112;2022-12-10T10:14:57;3.20;99.90
2721;DHT22;1368;49.484;11.112;2022-12-10T10:17:29;3.30;99.90
2721;DHT22;1368;49.484;11.112;2022-12-10T10:19:56;3.30;99.90
2721;DHT22;1368;49.484;11.112;2022-12-10T10:22:22;3.50;99.90
2721;DHT22;1368;49.484;11.112;2022-12-10T10:24:47;3.70;99.90
2721;DHT22;1368;49.484;11.112;2022-12-10T10:27:18;3.60;99.90
2721;DHT22;1368;49.484;11.112;2022-12-10T10:29:47;3.30;99.90
2721;DHT22;1368;49.484;11.112;2022-12-10T10:32:18;3.30;99.90
2721;DHT22;1368;49.484;11.112;2022-12-10T10:34:46;3.30;99.90
2721;DHT22;1368;49.484;11.112;2022-12-10T10:37:25;3.30;99.90
2721;DHT22;1368;49.484;11.112;2022-12-10T10:39:52;3.20;99.90
2721;DHT22;1368;49.484;11.112;2022-12-10T10:42:41;3.30;99.90
2721;DHT22;1368;49.484;11.112;2022-12-10T10:48:05;3.20;99.90
2721;DHT22;1368;49.484;11.112;2022-12-10T10:50:37;3.20;99.90
2721;DHT22;1368;49.484;11.112;2022-12-10T10:55:45;2.80;99.90
2721;DHT22;1368;49.484;11.112;2022-12-10T10:58:20;2.80;99.90
2721;DHT22;1368;49.484;11.112;2022-12-10T11:00:58;2.70;99.90
2721;DHT22;1368;49.484;11.112;2022-12-10T11:03:25;2.70;99.90
2721;DHT22;1368;49.484;11.112;2022-12-10T11:05:51;2.80;99.90
2721;DHT22;1368;49.484;11.112;2022-12-10T11:08:18;2.80;99.90
2721;DHT22;1368;49.484;11.112;2022-12-10T11:10:48;3.00;99.90
2721;DHT22;1368;49.484;11.112;2022-12-10T11:13:25;3.00;99.90
2721;DHT22;1368;49.484;11.112;2022-12-10T11:18:38;3.10;99.90
2721;DHT22;1368;49.484;11.112;2022-12-10T11:23:44;3.50;99.90
2721;DHT22;1368;49.484;11.112;2022-12-10T11:26:21;3.90;99.90
2721;DHT22;1368;49.484;11.112;2022-12-10T11:31:49;3.50;99.90
2721;DHT22;1368;49.484;11.112;2022-12-10T11:34:35;3.50;99.90
2721;DHT22;1368;49.484;11.112;2022-12-10T11:48:54;3.70;99.90
2721;DHT22;1368;49.484;11.112;2022-12-10T11:54:14;4.30;99.90
2721;DHT22;1368;49.484;11.112;2022-12-10T11:56:45;4.20;99.90
2721;DHT22;1368;49.484;11.112;2022-12-10T11:59:23;4.40;99.90
2721;DHT22;1368;49.484;11.112;2022-12-10T12:17:55;3.40;99.90
2721;DHT22;1368;49.484;11.112;2022-12-10T12:20:29;3.00;99.90
2721;DHT22;1368;49.484;11.112;2022-12-10T12:23:05;3.10;99.90
2721;DHT22;1368;49.484;11.112;2022-12-10T12:25:38;3.30;99.90
2721;DHT22;1368;49.484;11.112;2022-12-10T12:28:16;3.40;99.90
2721;DHT22;1368;49.484;11.112;2022-12-10T12:30:46;3.40;99.90
2721;DHT22;1368;49.484;11.112;2022-12-10T12:33:53;3.50;99.90
2721;DHT22;1368;49.484;11.112;2022-12-10T12:36:15;3.40;99.90
2721;DHT22;1368;49.484;11.112;2022-12-10T12:38:56;3.30;99.90
2721;DHT22;1368;49.484;11.112;2022-12-10T12:41:48;3.30;99.90
2721;DHT22;1368;49.484;11.112;2022-12-10T12:44:34;3.20;99.90
2721;DHT22;1368;49.484;11.112;2022-12-10T12:50:07;2.80;99.90
2721;DHT22;1368;49.484;11.112;2022-12-10T12:52:43;2.80;99.90
2721;DHT22;1368;49.484;11.112;2022-12-10T12:55:18;2.70;99.90
2721;DHT22;1368;49.484;11.112;2022-12-10T12:57:53;3.00;99.90
2721;DHT22;1368;49.484;11.112;2022-12-10T13:00:22;3.20;99.90
2721;DHT22;1368;49.484;11.112;2022-12-10T13:05:35;3.80;99.90
2721;DHT22;1368;49.484;11.112;2022-12-10T13:13:36;4.40;99.90
2721;DHT22;1368;49.484;11.112;2022-12-10T13:19:28;3.40;99.90
2721;DHT22;1368;49.484;11.112;2022-12-10T13:22:09;3.30;99.90
2721;DHT22;1368;49.484;11.112;2022-12-10T13:27:19;3.80;99.90
2721;DHT22;1368;49.484;11.112;2022-12-10T13:29:56;3.90;99.90
2721;DHT22;1368;49.484;11.112;2022-12-10T13:42:42;3.70;99.90
2721;DHT22;1368;49.484;11.112;2022-12-10T13:45:47;3.40;99.90
2721;DHT22;1368;49.484;11.112;2022-12-10T13:48:31;3.40;99.90
2721;DHT22;1368;49.484;11.112;2022-12-10T13:51:04;2.90;99.90
2721;DHT22;1368;49.484;11.112;2022-12-10T13:53:49;2.90;99.90
2721;DHT22;1368;49.484;11.112;2022-12-10T13:59:07;3.00;99.90
2721;DHT22;1368;49.484;11.112;2022-12-10T14:01:51;3.10;99.90
2721;DHT22;1368;49.484;11.112;2022-12-10T14:07:14;3.30;99.90
2721;DHT22;1368;49.484;11.112;2022-12-10T14:09:49;3.20;99.90
2721;DHT22;1368;49.484;11.112;2022-12-10T14:12:19;3.20;99.90
2721;DHT22;1368;49.484;11.112;2022-12-10T14:14:52;3.10;99.90
2721;DHT22;1368;49.484;11.112;2022-12-10T14:17:21;3.00;99.90
2721;DHT22;1368;49.484;11.112;2022-12-10T14:19:50;3.10;99.90
2721;DHT22;1368;49.484;11.112;2022-12-10T14:22:29;3.20;99.90
2721;DHT22;1368;49.484;11.112;2022-12-10T14:24:59;3.30;99.90
2721;DHT22;1368;49.484;11.112;2022-12-10T14:27:27;3.40;99.90
2721;DHT22;1368;49.484;11.112;2022-12-10T14:29:59;3.50;99.90
2721;DHT22;1368;49.484;11.112;2022-12-10T14:32:34;3.50;99.90
2721;DHT22;1368;49.484;11.112;2022-12-10T14:35:02;4.00;99.90
2721;DHT22;1368;49.484;11.112;2022-12-10T14:37:31;3.50;99.90
2721;DHT22;1368;49.484;11.112;2022-12-10T14:39:59;3.40;99.90
2721;DHT22;1368;49.484;11.112;2022-12-10T14:42:25;3.40;99.90
2721;DHT22;1368;49.484;11.112;2022-12-10T14:44:59;3.30;99.90
2721;DHT22;1368;49.484;11.112;2022-12-10T14:47:26;3.40;99.90
2721;DHT22;1368;49.484;11.112;2022-12-10T14:49:54;3.40;99.90
2721;DHT22;1368;49.484;11.112;2022-12-10T14:52:30;3.30;99.90
2721;DHT22;1368;49.484;11.112;2022-12-10T14:54:57;3.60;99.90
2721;DHT22;1368;49.484;11.112;2022-12-10T14:57:30;3.40;99.90
2721;DHT22;1368;49.484;11.112;2022-12-10T15:00:02;3.30;99.90
2721;DHT22;1368;49.484;11.112;2022-12-10T15:02:31;3.20;99.90
2721;DHT22;1368;49.484;11.112;2022-12-10T15:04:58;3.00;99.90
2721;DHT22;1368;49.484;11.112;2022-12-10T15:07:26;3.00;99.90
2721;DHT22;1368;49.484;11.112;2022-12-10T15:09:53;3.00;99.90
2721;DHT22;1368;49.484;11.112;2022-12-10T15:12:28;3.10;99.90
2721;DHT22;1368;49.484;11.112;2022-12-10T15:14:55;3.30;99.90
2721;DHT22;1368;49.484;11.112;2022-12-10T15:17:41;3.40;99.90
2721;DHT22;1368;49.484;11.112;2022-12-10T15:20:19;3.40;99.90
2721;DHT22;1368;49.484;11.112;2022-12-10T15:22:44;3.40;99.90
2721;DHT22;1368;49.484;11.112;2022-12-10T15:25:20;3.40;99.90
2721;DHT22;1368;49.484;11.112;2022-12-10T15:28:00;3.50;99.90
2721;DHT22;1368;49.484;11.112;2022-12-10T15:30:35;3.60;99.90
2721;DHT22;1368;49.484;11.112;2022-12-10T15:33:01;3.50;99.90
2721;DHT22;1368;49.484;11.112;2022-12-10T15:35:27;3.50;99.90
2721;DHT22;1368;49.484;11.112;2022-12-10T15:37:54;3.50;99.90
2721;DHT22;1368;49.484;11.112;2022-12-10T15:40:27;3.40;99.90
2721;DHT22;1368;49.484;11.112;2022-12-10T15:45:49;3.20;99.90
2721;DHT22;1368;49.484;11.112;2022-12-10T15:48:15;3.20;99.90
2721;DHT22;1368;49.484;11.112;2022-12-10T15:50:42;3.40;99.90
2721;DHT22;1368;49.484;11.112;2022-12-10T15:53:11;3.40;99.90
2721;DHT22;1368;49.484;11.112;2022-12-10T15:55:37;3.30;99.90
2721;DHT22;1368;49.484;11.112;2022-12-10T15:58:11;3.40;99.90
2721;DHT22;1368;49.484;11.112;2022-12-10T16:00:38;3.40;99.90
2721;DHT22;1368;49.484;11.112;2022-12-10T16:03:10;3.20;99.90
2721;DHT22;1368;49.484;11.112;2022-12-10T16:05:38;3.20;99.90
2721;DHT22;1368;49.484;11.112;2022-12-10T16:08:20;3.00;99.90
2721;DHT22;1368;49.484;11.112;2022-12-10T16:10:48;3.10;99.90
2721;DHT22;1368;49.484;11.112;2022-12-10T16:13:25;3.10;99.90
2721;DHT22;1368;49.484;11.112;2022-12-10T16:15:54;3.20;99.90
2721;DHT22;1368;49.484;11.112;2022-12-10T16:18:22;3.30;99.90
2721;DHT22;1368;49.484;11.112;2022-12-10T16:20:48;3.40;99.90
2721;DHT22;1368;49.484;11.112;2022-12-10T16:23:14;3.40;99.90
2721;DHT22;1368;49.484;11.112;2022-12-10T16:25:41;3.10;99.90
2721;DHT22;1368;49.484;11.112;2022-12-10T16:28:11;3.00;99.90
2721;DHT22;1368;49.484;11.112;2022-12-10T16:30:41;3.10;99.90
2721;DHT22;1368;49.484;11.112;2022-12-10T16:33:08;2.80;99.90
2721;DHT22;1368;49.484;11.112;2022-12-10T16:35:33;2.70;99.90
2721;DHT22;1368;49.484;11.112;2022-12-10T16:37:59;2.70;99.90
2721;DHT22;1368;49.484;11.112;2022-12-10T16:40:27;2.70;99.90
2721;DHT22;1368;49.484;11.112;2022-12-10T16:42:53;2.50;99.90
2721;DHT22;1368;49.484;11.112;2022-12-10T16:45:24;2.40;99.90
2721;DHT22;1368;49.484;11.112;2022-12-10T16:47:50;2.20;99.90
2721;DHT22;1368;49.484;11.112;2022-12-10T16:50:17;2.20;99.90
2721;DHT22;1368;49.484;11.112;2022-12-10T16:52:43;2.20;99.90
2721;DHT22;1368;49.484;11.112;2022-12-10T16:55:17;2.30;99.90
2721;DHT22;1368;49.484;11.112;2022-12-10T16:57:44;2.40;99.90
2721;DHT22;1368;49.484;11.112;2022-12-10T17:00:13;2.60;99.90
2721;DHT22;1368;49.484;11.112;2022-12-10T17:02:40;2.50;99.90
2721;DHT22;1368;49.484;11.112;2022-12-10T17:07:38;2.40;99.90
2721;DHT22;1368;49.484;11.112;2022-12-10T17:10:04;2.20;99.90
2721;DHT22;1368;49.484;11.112;2022-12-10T17:12:30;2.30;99.90
2721;DHT22;1368;49.484;11.112;2022-12-10T17:14:56;2.30;99.90
2721;DHT22;1368;49.484;11.112;2022-12-10T17:17:23;2.40;99.90
2721;DHT22;1368;49.484;11.112;2022-12-10T17:19:49;2.20;99.90
2721;DHT22;1368;49.484;11.112;2022-12-10T17:22:15;2.40;99.90
2721;DHT22;1368;49.484;11.112;2022-12-10T17:24:40;2.60;99.90
2721;DHT22;1368;49.484;11.112;2022-12-10T17:27:10;2.80;99.90
2721;DHT22;1368;49.484;11.112;2022-12-10T17:29:42;2.70;99.90
2721;DHT22;1368;49.484;11.112;2022-12-10T17:32:13;2.60;99.90
2721;DHT22;1368;49.484;11.112;2022-12-10T17:34:39;2.60;99.90
2721;DHT22;1368;49.484;11.112;2022-12-10T17:37:10;2.50;99.90
2721;DHT22;1368;49.484;11.112;2022-12-10T17:39:36;2.50;99.90
2721;DHT22;1368;49.484;11.112;2022-12-10T17:42:02;2.70;99.90
2721;DHT22;1368;49.484;11.112;2022-12-10T17:44:27;2.80;99.90
2721;DHT22;1368;49.484;11.112;2022-12-10T17:46:53;2.90;99.90
2721;DHT22;1368;49.484;11.112;2022-12-10T17:49:18;2.90;99.90
2721;DHT22;1368;49.484;11.112;2022-12-10T17:51:44;2.80;99.90
2721;DHT22;1368;49.484;11.112;2022-12-10T17:54:10;2.70;99.90
2721;DHT22;1368;49.484;11.112;2022-12-10T17:56:36;2.70;99.90
2721;DHT22;1368;49.484;11.112;2022-12-10T17:59:03;2.60;99.90
2721;DHT22;1368;49.484;11.112;2022-12-10T18:01:28;2.70;99.90